Time;durP1;ratioP1;P1;durP2;ratioP2;P2;SDS_P1;SDS_P2;PMS_P1;PMS_P2;Temp;Humidity;BMP_temperature;BMP_pressure;BME280_temperature;BME280_humidity;BME280_pressure;Samples;Min_cycle;Max_cycle;Signal;HPM_P1;HPM_P2
2023/12/14 00:01:13;;;;;;;12.20;6.32;;;;;;;8.38;61.03;100478.81;4997000;28;20034;-40
2023/12/14 00:03:43;;;;;;;12.93;7.28;;;;;;;8.35;61.13;100465.84;4988567;28;20034;-40
2023/12/14 00:06:10;;;;;;;12.85;5.75;;;;;;;8.31;61.13;100473.06;4997589;28;20046;-40
2023/12/14 00:08:35;;;;;;;11.98;6.47;;;;;;;8.17;61.41;100472.91;5000029;28;20088;-40
2023/12/14 00:11:05;;;;;;;11.13;6.22;;;;;;;8.21;61.28;100470.06;4995980;28;20034;-40
2023/12/14 00:13:31;;;;;;;14.43;6.68;;;;;;;8.23;61.24;100468.22;4997770;28;20072;-40
2023/12/14 00:15:56;;;;;;;13.90;6.65;;;;;;;8.34;61.29;100474.66;4989938;28;20123;-40
2023/12/14 00:18:22;;;;;;;12.82;7.05;;;;;;;8.35;61.53;100478.97;4997421;28;20037;-40
2023/12/14 00:20:48;;;;;;;10.35;6.18;;;;;;;8.27;61.27;100483.75;4986339;28;20041;-40
2023/12/14 00:23:13;;;;;;;15.48;6.63;;;;;;;8.27;61.21;100486.38;4988358;28;20053;-40
2023/12/14 00:25:39;;;;;;;14.63;7.72;;;;;;;8.38;61.27;100491.94;4999556;28;20064;-40
2023/12/14 00:28:04;;;;;;;13.43;7.40;;;;;;;8.30;61.44;100502.81;5000470;28;20054;-40
2023/12/14 00:30:30;;;;;;;12.05;6.95;;;;;;;8.29;61.64;100503.75;5000179;28;20041;-40
2023/12/14 00:32:55;;;;;;;13.63;6.80;;;;;;;8.24;61.75;100508.34;5001184;28;20084;-40
2023/12/14 00:35:21;;;;;;;15.57;6.75;;;;;;;8.30;61.50;100512.44;5000413;28;20064;-40
2023/12/14 00:37:46;;;;;;;13.38;6.47;;;;;;;8.12;61.88;100511.63;5007674;28;20044;-40
2023/12/14 00:40:12;;;;;;;14.23;7.22;;;;;;;8.25;61.79;100515.31;4998767;28;20054;-40
2023/12/14 00:42:37;;;;;;;13.45;6.95;;;;;;;8.20;61.77;100525.16;4998298;28;20036;-40
2023/12/14 00:45:03;;;;;;;12.90;7.30;;;;;;;8.32;61.47;100524.53;5004762;28;20409;-40
2023/12/14 00:47:28;;;;;;;8.20;4.47;;;;;;;8.41;61.27;100517.97;5003346;28;20088;-41
2023/12/14 00:49:54;;;;;;;15.63;7.32;;;;;;;8.48;61.34;100523.75;4999142;28;20041;-40
2023/12/14 00:52:19;;;;;;;18.25;7.22;;;;;;;8.36;61.29;100517.38;5001554;28;20033;-40
2023/12/14 00:54:45;;;;;;;14.70;7.60;;;;;;;8.52;61.23;100520.06;5001058;28;20029;-41
2023/12/14 00:57:10;;;;;;;13.15;6.97;;;;;;;8.44;61.50;100525.66;5000897;28;20448;-41
2023/12/14 00:59:35;;;;;;;14.10;6.95;;;;;;;8.38;61.36;100526.84;4996466;28;20041;-40
2023/12/14 01:02:01;;;;;;;13.30;6.97;;;;;;;8.41;61.81;100533.69;4978747;28;20030;-39
2023/12/14 01:04:26;;;;;;;13.05;7.45;;;;;;;8.31;61.87;100532.47;4996014;28;20041;-39
2023/12/14 01:06:52;;;;;;;13.40;7.78;;;;;;;8.39;61.67;100538.19;4999824;28;20670;-39
2023/12/14 01:09:17;;;;;;;15.73;7.97;;;;;;;8.27;61.63;100544.91;5005558;28;20034;-39
2023/12/14 01:11:43;;;;;;;13.23;7.18;;;;;;;8.23;61.42;100546.84;4991455;28;20026;-39
2023/12/14 01:14:08;;;;;;;14.43;7.75;;;;;;;8.18;62.39;100550.59;4992784;28;20057;-40
2023/12/14 01:16:34;;;;;;;16.17;8.27;;;;;;;8.20;62.12;100556.63;5001681;28;20026;-39
2023/12/14 01:18:59;;;;;;;15.52;7.78;;;;;;;8.21;62.25;100558.31;4992049;28;20161;-39
2023/12/14 01:21:24;;;;;;;17.58;8.00;;;;;;;8.09;62.48;100570.28;4998610;28;20081;-39
2023/12/14 01:23:51;;;;;;;14.52;8.10;;;;;;;8.22;62.09;100570.50;5000206;28;20034;-39
2023/12/14 01:26:18;;;;;;;14.25;7.43;;;;;;;8.23;62.19;100565.19;5001321;28;20030;-39
2023/12/14 01:28:43;;;;;;;19.23;7.65;;;;;;;8.28;61.75;100570.19;5006889;28;20027;-39
2023/12/14 01:31:09;;;;;;;16.83;7.63;;;;;;;8.15;62.32;100579.59;5014239;28;20026;-39
2023/12/14 01:33:34;;;;;;;15.63;7.90;;;;;;;8.23;62.01;100578.31;5002007;28;20057;-39
2023/12/14 01:36:00;;;;;;;15.60;8.73;;;;;;;8.23;61.81;100577.44;5002214;28;20477;-40
2023/12/14 01:38:25;;;;;;;15.05;7.40;;;;;;;8.31;62.02;100575.28;5001767;28;20434;-39
2023/12/14 01:40:51;;;;;;;15.23;7.35;;;;;;;8.30;61.85;100580.59;4993604;28;20769;-39
2023/12/14 01:43:16;;;;;;;13.75;6.82;;;;;;;8.32;62.10;100586.63;4993938;28;20061;-39
2023/12/14 01:45:42;;;;;;;15.45;7.43;;;;;;;8.19;61.68;100597.72;5000127;28;20045;-39
2023/12/14 01:48:07;;;;;;;11.98;7.32;;;;;;;8.35;61.49;100599.56;5009471;28;20042;-39
2023/12/14 01:50:33;;;;;;;13.45;7.18;;;;;;;8.37;61.56;100598.56;4992438;28;20030;-39
2023/12/14 01:52:58;;;;;;;13.52;7.47;;;;;;;8.35;61.54;100600.41;4995504;28;20044;-39
2023/12/14 01:55:25;;;;;;;14.40;7.50;;;;;;;8.39;61.40;100603.75;5003816;28;20076;-39
2023/12/14 01:57:51;;;;;;;12.80;7.03;;;;;;;8.33;61.50;100609.28;5002201;28;20135;-40
2023/12/14 02:00:37;;;;;;;13.30;6.18;;;;;;;8.27;61.76;100610.44;4998223;28;20843;-41
2023/12/14 02:03:03;;;;;;;12.35;6.68;;;;;;;8.25;61.67;100614.91;5000597;28;25537;-40
2023/12/14 02:05:29;;;;;;;11.07;6.63;;;;;;;8.14;62.02;100619.84;4995734;28;20060;-40
2023/12/14 02:07:54;;;;;;;12.63;7.53;;;;;;;8.27;61.46;100614.81;5002600;28;20899;-40
2023/12/14 02:10:20;;;;;;;14.27;6.97;;;;;;;8.14;62.06;100618.06;5002960;28;20401;-41
2023/12/14 02:12:45;;;;;;;11.48;6.55;;;;;;;8.21;62.01;100627.34;4999536;28;20120;-40
2023/12/14 02:15:12;;;;;;;16.08;7.15;;;;;;;8.22;61.93;100633.41;4999046;28;20025;-41
2023/12/14 02:17:37;;;;;;;13.13;6.80;;;;;;;8.22;61.79;100638.66;5003187;28;20478;-40
2023/12/14 02:20:03;;;;;;;17.20;7.10;;;;;;;8.29;61.88;100636.56;5000236;28;20076;-40
2023/12/14 02:22:35;;;;;;;13.82;7.07;;;;;;;8.39;61.57;100637.81;5004455;28;20049;-41
2023/12/14 02:25:01;;;;;;;14.32;7.32;;;;;;;8.21;61.58;100637.81;5004359;28;20080;-40
2023/12/14 02:27:26;;;;;;;14.07;7.43;;;;;;;8.12;61.86;100633.00;4995228;28;20714;-39
2023/12/14 02:29:51;;;;;;;15.38;6.72;;;;;;;8.24;61.70;100636.81;4998069;28;20018;-40
2023/12/14 02:32:17;;;;;;;13.38;6.10;;;;;;;8.27;61.53;100638.41;4997103;28;20037;-40
2023/12/14 02:34:42;;;;;;;13.00;6.35;;;;;;;8.10;62.11;100629.59;5007674;28;20052;-40
2023/12/14 02:37:08;;;;;;;13.20;7.03;;;;;;;7.96;62.82;100637.28;5005007;28;20028;-40
2023/12/14 02:39:33;;;;;;;9.60;5.53;;;;;;;7.90;62.75;100639.31;5004624;28;20084;-40
2023/12/14 02:41:59;;;;;;;17.23;6.78;;;;;;;8.06;62.50;100638.56;5000295;28;20026;-40
2023/12/14 02:44:24;;;;;;;12.55;6.20;;;;;;;8.12;62.22;100633.00;4990106;28;20030;-40
2023/12/14 02:46:49;;;;;;;5.10;3.75;;;;;;;8.02;62.24;100637.84;4997541;28;20034;-40
2023/12/14 02:49:15;;;;;;;14.65;7.00;;;;;;;8.17;62.06;100641.50;4999190;28;20144;-40
2023/12/14 02:51:40;;;;;;;9.77;5.78;;;;;;;8.19;62.16;100639.66;5000806;28;20032;-40
2023/12/14 02:54:06;;;;;;;9.00;5.45;;;;;;;8.06;62.33;100638.56;5003458;28;20034;-40
2023/12/14 02:56:31;;;;;;;13.65;6.40;;;;;;;8.09;62.15;100646.28;5001636;28;20057;-40
2023/12/14 02:58:57;;;;;;;11.75;6.13;;;;;;;8.06;62.21;100643.81;5008681;28;20068;-40
2023/12/14 03:01:22;;;;;;;15.25;7.30;;;;;;;8.16;62.14;100649.47;5001156;28;20049;-40
2023/12/14 03:03:48;;;;;;;12.77;5.88;;;;;;;8.21;61.72;100647.44;4998292;28;20044;-40
2023/12/14 03:06:13;;;;;;;10.80;6.03;;;;;;;8.13;62.03;100650.44;5001406;28;21062;-40
2023/12/14 03:08:39;;;;;;;13.70;6.68;;;;;;;8.18;61.67;100656.31;5006048;28;20093;-41
2023/12/14 03:11:04;;;;;;;13.70;7.25;;;;;;;8.21;61.64;100653.53;4997939;28;20065;-40
2023/12/14 03:13:30;;;;;;;10.43;5.63;;;;;;;8.15;62.17;100653.00;4999316;28;20038;-40
2023/12/14 03:15:55;;;;;;;12.70;6.07;;;;;;;8.18;61.90;100656.31;5013571;28;20037;-40
2023/12/14 03:18:21;;;;;;;14.70;6.95;;;;;;;8.02;61.81;100658.81;5017719;28;20129;-40
2023/12/14 03:20:46;;;;;;;12.73;6.82;;;;;;;8.11;61.67;100662.75;5006716;28;20068;-40
2023/12/14 03:23:12;;;;;;;13.07;7.55;;;;;;;8.10;61.71;100658.44;5000799;28;20061;-41
2023/12/14 03:25:37;;;;;;;12.13;6.25;;;;;;;7.98;62.22;100666.91;5003362;28;20052;-40
2023/12/14 03:28:03;;;;;;;13.48;6.78;;;;;;;8.04;61.75;100662.22;5000180;28;20045;-40
2023/12/14 03:30:28;;;;;;;11.88;5.93;;;;;;;8.00;62.17;100668.53;4993214;28;20044;-40
2023/12/14 03:32:54;;;;;;;12.40;6.35;;;;;;;7.97;62.13;100680.91;4997786;28;20080;-40
2023/12/14 03:35:19;;;;;;;16.25;6.93;;;;;;;8.04;62.11;100684.97;5002391;28;20061;-40
2023/12/14 03:37:44;;;;;;;13.02;6.40;;;;;;;8.03;61.97;100685.88;5002798;28;20057;-39
2023/12/14 03:40:10;;;;;;;14.55;7.00;;;;;;;8.00;62.26;100691.25;5002020;28;20034;-40
2023/12/14 03:42:35;;;;;;;14.43;7.53;;;;;;;8.08;62.41;100697.00;4997596;28;20053;-41
2023/12/14 03:45:01;;;;;;;14.50;6.88;;;;;;;8.03;62.22;100701.59;5003624;28;20033;-41
2023/12/14 03:47:26;;;;;;;14.80;7.30;;;;;;;7.89;62.74;100700.50;5005527;28;20042;-40
2023/12/14 03:49:52;;;;;;;13.93;5.47;;;;;;;7.75;62.89;100705.53;4998125;28;20485;-40
2023/12/14 03:52:17;;;;;;;14.63;7.63;;;;;;;7.86;62.75;100716.34;4998696;28;20307;-40
2023/12/14 03:54:43;;;;;;;14.43;7.28;;;;;;;7.78;62.60;100713.25;5001076;28;20057;-40
2023/12/14 03:57:08;;;;;;;15.80;7.60;;;;;;;7.94;62.48;100714.19;5004050;28;20035;-40
2023/12/14 03:59:34;;;;;;;15.55;8.13;;;;;;;7.97;62.14;100712.38;5006983;28;20040;-40
2023/12/14 04:01:59;;;;;;;16.77;8.00;;;;;;;7.87;62.37;100715.44;5008741;28;20022;-40
2023/12/14 04:04:25;;;;;;;18.73;7.20;;;;;;;7.84;62.58;100715.56;5005665;28;20061;-41
2023/12/14 04:06:51;;;;;;;20.15;7.85;;;;;;;7.89;62.71;100721.44;5007725;28;20029;-40
2023/12/14 04:09:17;;;;;;;16.73;7.70;;;;;;;7.98;62.29;100725.41;4996568;28;20096;-40
2023/12/14 04:11:42;;;;;;;16.13;8.93;;;;;;;7.87;62.40;100728.53;5005301;28;20424;-40
2023/12/14 04:14:09;;;;;;;16.05;8.63;;;;;;;7.82;62.74;100735.75;4999928;28;20027;-40
2023/12/14 04:16:35;;;;;;;11.02;4.88;;;;;;;7.87;62.58;100744.25;5004052;28;20033;-40
2023/12/14 04:19:00;;;;;;;18.42;7.07;;;;;;;7.86;62.54;100742.56;5005081;28;20048;-40
2023/12/14 04:21:26;;;;;;;14.05;7.15;;;;;;;7.79;62.45;100751.59;5008020;28;20079;-39
2023/12/14 04:23:51;;;;;;;17.40;7.65;;;;;;;7.91;62.45;100751.06;5000851;28;20033;-40
2023/12/14 04:26:16;;;;;;;17.60;7.22;;;;;;;7.92;62.44;100751.88;5005129;28;20605;-41
2023/12/14 04:28:44;;;;;;;14.73;6.88;;;;;;;8.01;62.42;100750.63;5003323;28;20647;-40
2023/12/14 04:31:10;;;;;;;20.33;8.43;;;;;;;7.93;62.45;100749.22;4997035;28;20025;-40
2023/12/14 04:33:35;;;;;;;19.95;8.65;;;;;;;7.80;62.18;100758.53;5002699;28;20085;-40
2023/12/14 04:36:01;;;;;;;17.73;7.35;;;;;;;7.90;62.19;100761.59;5004215;28;20746;-40
2023/12/14 04:38:27;;;;;;;12.98;6.65;;;;;;;7.85;62.68;100768.84;5008018;28;20070;-40
2023/12/14 04:40:52;;;;;;;13.80;7.25;;;;;;;8.06;62.18;100777.47;5003333;28;20964;-41
2023/12/14 04:43:18;;;;;;;15.13;7.72;;;;;;;8.07;61.93;100781.78;5005124;28;20029;-41
2023/12/14 04:45:44;;;;;;;19.77;7.95;;;;;;;8.08;62.05;100783.50;5003858;28;20029;-41
2023/12/14 04:48:09;;;;;;;14.05;7.82;;;;;;;8.08;61.74;100783.50;5003162;28;20045;-40
2023/12/14 04:50:35;;;;;;;17.27;7.13;;;;;;;8.08;61.80;100804.44;5003021;28;20069;-40
2023/12/14 04:53:00;;;;;;;16.77;7.63;;;;;;;7.92;61.82;100794.69;4998992;28;20070;-41
2023/12/14 04:55:26;;;;;;;18.85;7.10;;;;;;;7.80;61.85;100805.69;4999797;28;20030;-41
2023/12/14 04:57:51;;;;;;;13.80;6.43;;;;;;;7.95;61.86;100801.53;5004855;28;20036;-40
2023/12/14 05:00:17;;;;;;;18.70;7.22;;;;;;;7.98;61.94;100803.16;5006773;28;20030;-41
2023/12/14 05:02:47;;;;;;;31.17;14.10;;;;;;;7.91;62.05;100803.47;5005026;28;20073;-41
2023/12/14 05:05:13;;;;;;;25.75;12.23;;;;;;;8.01;62.03;100813.50;5004359;28;20037;-41
2023/12/14 05:07:38;;;;;;;18.65;8.68;;;;;;;8.01;62.05;100803.03;5007930;28;20041;-40
2023/12/14 05:10:05;;;;;;;13.65;7.20;;;;;;;8.02;61.91;100807.34;5009437;28;20036;-40
2023/12/14 05:12:31;;;;;;;17.70;7.78;;;;;;;8.07;61.88;100810.63;5008874;28;20034;-40
2023/12/14 05:14:57;;;;;;;16.17;6.65;;;;;;;8.16;61.75;100812.78;4994810;28;20046;-40
2023/12/14 05:17:22;;;;;;;15.15;7.00;;;;;;;8.12;61.42;100816.47;5005707;28;20384;-40
2023/12/14 05:19:48;;;;;;;17.38;6.78;;;;;;;8.17;61.45;100819.75;5006440;28;20045;-39
2023/12/14 05:22:13;;;;;;;17.98;7.88;;;;;;;8.26;61.28;100817.59;5005419;28;20038;-39
2023/12/14 05:24:39;;;;;;;11.93;6.80;;;;;;;8.15;61.29;100828.59;5004527;28;20172;-39
2023/12/14 05:27:04;;;;;;;37.58;16.73;;;;;;;8.08;60.90;100825.41;5004041;28;20029;-39
2023/12/14 05:29:31;;;;;;;17.58;8.00;;;;;;;8.06;61.13;100832.50;5008464;28;20032;-38
2023/12/14 05:31:56;;;;;;;16.75;7.30;;;;;;;8.08;61.21;100836.75;5009293;28;20860;-38
2023/12/14 05:34:22;;;;;;;15.02;6.50;;;;;;;8.03;61.29;100843.13;4990265;28;20129;-39
2023/12/14 05:36:47;;;;;;;14.80;7.55;;;;;;;7.99;61.10;100852.03;5003093;28;20413;-40
2023/12/14 05:39:13;;;;;;;14.15;6.20;;;;;;;7.99;61.17;100852.91;5001100;28;20366;-39
2023/12/14 05:41:40;;;;;;;15.85;8.20;;;;;;;8.03;61.09;100857.06;4998849;28;20240;-40
2023/12/14 05:44:06;;;;;;;13.63;7.13;;;;;;;7.87;61.24;100866.53;5001974;28;20460;-40
2023/12/14 05:46:31;;;;;;;16.45;6.38;;;;;;;7.77;61.36;100868.72;5002956;28;20038;-40
2023/12/14 05:48:57;;;;;;;16.13;6.88;;;;;;;7.78;61.41;100871.25;5000822;28;20026;-40
2023/12/14 05:51:33;;;;;;;15.07;7.30;;;;;;;7.85;61.30;100874.47;4997749;28;20018;-40
2023/12/14 05:53:59;;;;;;;13.93;7.13;;;;;;;7.78;61.44;100878.28;4997527;28;20040;-40
2023/12/14 05:56:25;;;;;;;65.70;26.45;;;;;;;7.80;61.86;100873.81;5004446;28;20665;-40
2023/12/14 05:58:51;;;;;;;20.02;10.25;;;;;;;7.82;61.33;100877.22;4997910;28;20431;-40
2023/12/14 06:01:17;;;;;;;17.10;7.88;;;;;;;7.88;61.23;100890.06;5003487;28;20031;-40
2023/12/14 06:03:43;;;;;;;13.70;6.68;;;;;;;7.97;61.08;100886.16;5002621;28;20033;-40
2023/12/14 06:06:09;;;;;;;15.27;7.05;;;;;;;8.02;61.22;100892.03;5006661;28;20079;-41
2023/12/14 06:08:35;;;;;;;15.40;6.97;;;;;;;8.04;61.22;100902.47;5006294;28;20022;-40
2023/12/14 06:11:00;;;;;;;18.73;7.78;;;;;;;8.08;61.44;100901.44;5000504;28;20518;-41
2023/12/14 06:13:26;;;;;;;14.88;7.70;;;;;;;8.18;61.09;100899.22;5007210;28;20123;-40
2023/12/14 06:15:51;;;;;;;14.52;7.88;;;;;;;8.18;61.22;100909.69;5002394;28;20034;-40
2023/12/14 06:18:17;;;;;;;16.42;6.32;;;;;;;8.28;61.03;100907.53;5003284;28;20037;-40
2023/12/14 06:20:42;;;;;;;17.27;6.90;;;;;;;8.27;61.21;100918.91;5001587;28;20079;-40
2023/12/14 06:23:08;;;;;;;14.77;7.45;;;;;;;8.26;61.14;100912.84;4997880;28;20481;-40
2023/12/14 06:25:33;;;;;;;15.27;6.95;;;;;;;8.22;60.79;100911.28;5004784;28;20042;-40
2023/12/14 06:27:59;;;;;;;15.68;7.55;;;;;;;8.16;61.09;100922.88;5004667;28;20044;-40
2023/12/14 06:30:24;;;;;;;8.93;4.22;;;;;;;8.00;60.96;100921.88;4998511;28;20032;-41
2023/12/14 06:32:49;;;;;;;14.38;6.43;;;;;;;8.18;61.26;100931.53;4998429;28;20034;-40
2023/12/14 06:35:15;;;;;;;14.63;6.70;;;;;;;8.27;61.50;100935.53;5006825;28;20862;-40
2023/12/14 06:37:41;;;;;;;14.68;6.70;;;;;;;8.33;61.72;100931.75;5007789;28;20065;-40
2023/12/14 06:40:08;;;;;;;16.30;7.60;;;;;;;8.38;61.01;100937.66;5012091;28;20049;-40
2023/12/14 06:42:34;;;;;;;17.90;7.80;;;;;;;8.35;60.99;100948.28;5002198;28;20100;-40
2023/12/14 06:45:02;;;;;;;13.18;6.38;;;;;;;8.26;61.09;100953.91;5006216;28;20037;-40
2023/12/14 06:47:28;;;;;;;21.63;7.85;;;;;;;8.06;60.97;100960.91;5009853;28;20041;-40
2023/12/14 06:49:53;;;;;;;14.85;7.07;;;;;;;8.14;60.96;100960.59;4995290;28;20046;-39
2023/12/14 06:52:19;;;;;;;14.75;6.25;;;;;;;7.82;61.10;100966.28;5003765;28;21371;-40
2023/12/14 06:54:44;;;;;;;18.13;6.95;;;;;;;8.04;60.76;100970.63;4996676;28;20038;-40
2023/12/14 06:57:10;;;;;;;16.00;7.25;;;;;;;8.12;60.58;100978.13;5004815;28;20041;-40
2023/12/14 06:59:35;;;;;;;14.82;8.05;;;;;;;8.17;60.66;100991.88;5005028;28;20129;-41
2023/12/14 07:02:01;;;;;;;13.55;6.53;;;;;;;8.04;60.60;100994.19;5004995;28;20042;-40
2023/12/14 07:04:26;;;;;;;38.50;15.93;;;;;;;7.90;60.94;100990.41;5001085;28;20760;-40
2023/12/14 07:06:52;;;;;;;17.70;8.18;;;;;;;7.93;60.53;101010.38;5005270;28;20487;-41
2023/12/14 07:09:18;;;;;;;19.85;9.55;;;;;;;7.91;60.67;101010.44;5007566;28;20402;-40
2023/12/14 07:11:43;;;;;;;18.80;8.90;;;;;;;7.93;60.58;101020.84;5006462;28;20030;-40
2023/12/14 07:14:09;;;;;;;15.80;8.20;;;;;;;7.99;60.69;101019.75;4993089;28;20052;-40
2023/12/14 07:16:34;;;;;;;14.23;6.78;;;;;;;7.79;61.36;101021.41;5004951;28;20030;-40
2023/12/14 07:19:00;;;;;;;17.17;6.72;;;;;;;7.66;61.29;101022.84;5001413;28;20033;-40
2023/12/14 07:21:25;;;;;;;15.85;6.82;;;;;;;7.63;61.46;101031.69;4999629;28;20080;-40
2023/12/14 07:23:51;;;;;;;8.32;4.15;;;;;;;7.69;60.93;101027.97;5003804;28;20033;-40
2023/12/14 07:26:16;;;;;;;13.10;6.72;;;;;;;7.54;61.77;101034.69;5007045;28;20041;-40
2023/12/14 07:28:41;;;;;;;17.85;7.53;;;;;;;7.56;61.13;101031.09;5006668;28;20117;-40
2023/12/14 07:31:07;;;;;;;14.13;7.13;;;;;;;7.46;61.70;101037.63;4998880;28;20536;-39
2023/12/14 07:33:32;;;;;;;14.88;6.68;;;;;;;7.56;61.59;101028.47;5005041;28;20044;-40
2023/12/14 07:35:58;;;;;;;15.18;6.75;;;;;;;7.59;61.71;101040.56;5002439;28;20125;-40
2023/12/14 07:38:23;;;;;;;15.50;6.43;;;;;;;7.63;61.15;101037.78;4991153;28;20493;-40
2023/12/14 07:40:50;;;;;;;14.00;6.25;;;;;;;7.60;61.13;101045.78;5001121;28;20034;-39
2023/12/14 07:43:15;;;;;;;17.10;8.32;;;;;;;7.50;61.84;101060.13;4995617;28;20033;-40
2023/12/14 07:45:41;;;;;;;13.43;7.10;;;;;;;7.50;61.67;101052.28;5004225;28;20041;-40
2023/12/14 07:48:06;;;;;;;18.35;7.68;;;;;;;7.54;61.69;101056.47;5000233;28;20448;-39
2023/12/14 07:50:32;;;;;;;17.08;7.30;;;;;;;7.61;61.43;101063.19;5002152;28;20030;-40
2023/12/14 07:52:57;;;;;;;12.48;6.07;;;;;;;7.63;61.49;101063.13;5001460;28;20563;-40
2023/12/14 07:55:23;;;;;;;16.90;7.47;;;;;;;7.63;61.12;101071.84;5004085;28;20026;-40
2023/12/14 07:57:48;;;;;;;20.55;7.05;;;;;;;7.54;61.77;101074.81;4999222;28;20041;-40
2023/12/14 08:00:15;;;;;;;13.63;6.55;;;;;;;7.54;61.32;101077.44;5004924;28;20034;-40
2023/12/14 08:02:41;;;;;;;15.38;6.60;;;;;;;7.65;61.22;101086.63;5005997;28;20026;-40
2023/12/14 08:05:07;;;;;;;15.35;7.38;;;;;;;7.09;62.33;101091.38;5000214;28;20069;-40
2023/12/14 08:07:33;;;;;;;16.17;7.60;;;;;;;7.31;62.07;101096.66;5004684;28;20061;-39
2023/12/14 08:09:59;;;;;;;18.13;8.38;;;;;;;7.42;62.05;101098.88;5006874;28;20083;-39
2023/12/14 08:12:24;;;;;;;16.17;8.50;;;;;;;7.51;61.72;101100.28;5007491;28;20034;-39
2023/12/14 08:14:50;;;;;;;17.05;8.35;;;;;;;7.65;61.75;101100.59;4999113;28;20037;-40
2023/12/14 08:17:16;;;;;;;13.77;6.00;;;;;;;7.66;61.66;101097.06;5005373;28;20049;-39
2023/12/14 08:19:42;;;;;;;13.90;6.90;;;;;;;7.74;61.41;101112.47;5001815;28;20052;-41
2023/12/14 08:22:10;;;;;;;16.98;7.07;;;;;;;7.60;61.37;101116.47;5002977;28;20038;-40
2023/12/14 08:24:37;;;;;;;16.60;7.60;;;;;;;7.62;61.59;101133.00;5006079;28;20516;-40
2023/12/14 08:27:03;;;;;;;12.70;7.20;;;;;;;7.71;61.35;101131.78;5009005;28;20029;-40
2023/12/14 08:29:28;;;;;;;15.43;6.80;;;;;;;7.79;60.96;101134.06;5009218;28;20088;-40
2023/12/14 08:31:56;;;;;;;16.10;7.15;;;;;;;7.79;60.89;101136.69;5009766;28;20121;-41
2023/12/14 08:34:23;;;;;;;13.52;6.63;;;;;;;7.67;61.08;101140.66;5001999;28;20077;-40
2023/12/14 08:36:48;;;;;;;15.20;8.20;;;;;;;7.82;61.32;101139.19;5005633;28;20037;-40
2023/12/14 08:39:14;;;;;;;23.02;7.78;;;;;;;7.77;61.12;101149.03;5012924;28;20034;-40
2023/12/14 08:41:40;;;;;;;14.75;7.93;;;;;;;7.73;61.20;101144.81;5005092;28;20413;-40
2023/12/14 08:44:06;;;;;;;16.08;7.43;;;;;;;7.81;61.27;101153.19;5005210;28;20033;-40
2023/12/14 08:46:39;;;;;;;9.70;4.93;;;;;;;7.70;61.08;101158.03;5012326;28;20345;-41
2023/12/14 08:49:04;;;;;;;13.45;6.82;;;;;;;7.84;61.37;101170.59;5002503;28;20029;-41
2023/12/14 08:51:30;;;;;;;18.92;7.63;;;;;;;7.91;61.01;101164.19;5001772;28;20397;-41
2023/12/14 08:53:55;;;;;;;15.77;7.30;;;;;;;7.88;61.06;101172.16;5008624;28;20772;-41
2023/12/14 08:56:21;;;;;;;15.77;7.20;;;;;;;7.89;60.71;101169.50;5001005;28;20026;-41
2023/12/14 08:58:46;;;;;;;17.23;7.22;;;;;;;7.97;60.99;101176.19;5007423;28;20057;-41
2023/12/14 09:01:11;;;;;;;86.30;37.13;;;;;;;7.90;60.86;101179.06;5006832;28;20033;-40
2023/12/14 09:03:37;;;;;;;17.50;9.23;;;;;;;7.96;60.71;101192.81;5002118;28;20088;-41
2023/12/14 09:06:05;;;;;;;19.65;8.18;;;;;;;7.92;60.88;101186.84;5002063;28;20042;-40
2023/12/14 09:08:30;;;;;;;18.92;7.88;;;;;;;8.00;60.94;101191.78;5009253;28;20036;-41
2023/12/14 09:10:56;;;;;;;15.50;7.18;;;;;;;7.98;60.61;101202.34;5010463;28;20117;-41
2023/12/14 09:13:21;;;;;;;17.35;7.07;;;;;;;8.01;60.46;101201.34;5008437;28;20042;-40
2023/12/14 09:15:47;;;;;;;18.70;7.28;;;;;;;7.97;60.28;101207.63;5004907;28;20049;-40
2023/12/14 09:18:12;;;;;;;15.00;7.55;;;;;;;7.93;60.33;101213.00;5003857;28;20026;-40
2023/12/14 09:20:40;;;;;;;14.02;6.90;;;;;;;8.03;60.21;101210.84;5009048;28;20037;-40
2023/12/14 09:23:05;;;;;;;15.05;7.15;;;;;;;7.91;60.40;101219.19;5010013;28;20031;-40
2023/12/14 09:25:33;;;;;;;14.30;6.38;;;;;;;7.92;61.01;101219.16;5002071;28;20180;-41
2023/12/14 09:27:58;;;;;;;16.90;8.15;;;;;;;7.92;61.08;101218.28;5004024;28;20495;-41
2023/12/14 09:30:24;;;;;;;15.25;7.85;;;;;;;7.88;61.32;101222.81;5004688;28;20838;-41
2023/12/14 09:32:49;;;;;;;16.45;8.13;;;;;;;8.02;60.81;101216.16;5002147;28;20508;-41
2023/12/14 09:35:15;;;;;;;20.13;7.03;;;;;;;7.92;60.72;101213.06;5006303;28;20076;-41
2023/12/14 09:37:41;;;;;;;17.05;7.38;;;;;;;8.04;60.42;101219.59;5007619;28;20045;-41
2023/12/14 09:40:08;;;;;;;15.07;7.05;;;;;;;8.09;60.67;101221.09;5004109;28;20022;-41
2023/12/14 09:42:38;;;;;;;17.92;7.85;;;;;;;8.19;60.31;101226.84;5012481;28;20038;-41
2023/12/14 09:45:04;;;;;;;15.07;7.53;;;;;;;8.13;59.95;101224.47;4997513;28;20033;-41
2023/12/14 09:47:30;;;;;;;18.30;7.95;;;;;;;7.93;60.36;101235.72;5005255;28;20053;-41
2023/12/14 09:49:55;;;;;;;16.05;7.35;;;;;;;7.98;60.77;101230.28;5005249;28;20068;-41
2023/12/14 09:52:21;;;;;;;43.45;18.42;;;;;;;7.99;60.54;101234.63;5005503;28;20034;-40
2023/12/14 09:54:46;;;;;;;15.90;7.57;;;;;;;8.08;60.51;101239.53;5008795;28;20304;-41
2023/12/14 09:57:12;;;;;;;13.90;6.63;;;;;;;8.08;60.20;101235.13;5000606;28;20053;-40
2023/12/14 09:59:38;;;;;;;14.70;7.13;;;;;;;8.20;60.14;101244.28;5000505;28;20041;-38
2023/12/14 10:02:11;;;;;;;20.77;6.93;;;;;;;8.18;59.95;101250.47;5005010;28;20038;-41
2023/12/14 10:04:37;;;;;;;15.13;7.70;;;;;;;8.20;59.80;101262.63;4999435;28;20423;-39
2023/12/14 10:07:06;;;;;;;15.93;8.10;;;;;;;8.09;59.74;101267.44;5006785;28;20057;-39
2023/12/14 10:09:33;;;;;;;19.45;7.97;;;;;;;7.91;60.05;101262.00;5003890;28;20045;-39
2023/12/14 10:12:17;;;;;;;15.30;7.03;;;;;;;8.06;59.94;101260.53;5001884;28;20060;-39
2023/12/14 10:14:42;;;;;;;16.30;7.68;;;;;;;8.01;60.20;101267.75;5005128;28;20064;-39
2023/12/14 10:17:16;;;;;;;20.70;8.00;;;;;;;7.98;60.44;101267.00;4997949;28;20070;-41
2023/12/14 10:19:45;;;;;;;15.43;6.47;;;;;;;8.01;60.11;101269.50;5004425;28;21664;-39
2023/12/14 10:22:13;;;;;;;17.08;7.03;;;;;;;8.15;59.89;101274.22;5005229;28;20028;-39
2023/12/14 10:24:38;;;;;;;13.93;7.28;;;;;;;8.20;59.67;101270.50;5003284;28;20018;-39
2023/12/14 10:27:07;;;;;;;16.70;6.93;;;;;;;8.21;59.33;101279.19;5005006;28;20497;-39
2023/12/14 10:29:36;;;;;;;13.95;5.35;;;;;;;8.26;59.69;101284.25;5002906;28;20492;-39
2023/12/14 10:32:06;;;;;;;17.05;8.02;;;;;;;8.27;59.46;101278.97;5007153;28;20089;-39
2023/12/14 10:34:39;;;;;;;17.63;7.78;;;;;;;8.21;59.57;101277.44;5004439;28;20041;-39
2023/12/14 10:37:06;;;;;;;19.88;9.52;;;;;;;8.36;59.81;101280.38;5004763;28;20029;-39
2023/12/14 10:39:35;;;;;;;13.90;7.35;;;;;;;8.52;59.76;101275.38;5000563;28;20585;-39
2023/12/14 10:42:06;;;;;;;22.55;8.57;;;;;;;8.52;59.55;101281.50;5002736;28;20095;-39
2023/12/14 10:44:36;;;;;;;27.17;11.77;;;;;;;8.50;59.32;101285.97;5010036;28;20032;-39
2023/12/14 10:47:04;;;;;;;18.05;7.80;;;;;;;8.48;58.93;101302.66;4995390;28;20088;-40
2023/12/14 10:49:30;;;;;;;14.48;6.97;;;;;;;8.48;59.04;101306.16;5003598;28;20030;-39
2023/12/14 10:51:58;;;;;;;17.35;8.32;;;;;;;8.63;58.92;101303.81;5002413;28;20022;-39
2023/12/14 10:54:25;;;;;;;12.70;7.20;;;;;;;8.59;58.91;101291.72;5007157;28;20431;-39
2023/12/14 10:56:56;;;;;;;17.13;7.18;;;;;;;8.66;59.35;101287.97;5004136;28;20036;-39
2023/12/14 10:59:23;;;;;;;16.30;6.93;;;;;;;8.69;59.09;101287.84;5004051;28;20025;-39
2023/12/14 11:01:53;;;;;;;14.15;6.45;;;;;;;8.83;59.21;101290.75;5006569;28;20068;-39
2023/12/14 11:04:21;;;;;;;17.75;8.23;;;;;;;8.87;59.38;101303.72;5004253;28;20021;-40
2023/12/14 11:06:48;;;;;;;13.77;7.82;;;;;;;8.90;59.25;101308.84;5007365;28;20502;-40
2023/12/14 11:09:18;;;;;;;13.23;6.60;;;;;;;8.93;58.98;101312.19;5000326;28;20461;-39
2023/12/14 11:11:53;;;;;;;14.77;7.40;;;;;;;9.00;58.56;101312.78;5006675;28;20026;-39
2023/12/14 11:14:19;;;;;;;16.20;7.30;;;;;;;8.98;58.79;101314.63;5011365;28;20037;-39
2023/12/14 11:16:46;;;;;;;14.63;6.97;;;;;;;8.99;58.61;101311.09;5001989;28;20029;-40
2023/12/14 11:19:21;;;;;;;19.20;7.65;;;;;;;9.12;58.63;101317.53;5009178;28;20423;-39